Time;durP1;ratioP1;P1;durP2;ratioP2;P2;SDS_P1;SDS_P2;PMS_P1;PMS_P2;Temp;Humidity;BMP_temperature;BMP_pressure;BME280_temperature;BME280_humidity;BME280_pressure;Samples;Min_cycle;Max_cycle;Signal;HPM_P1;HPM_P2
2023/07/13 00:02:21;;;;;;;5.03;2.30;;;;;;;20.31;55.64;100057.64;1641665;86;21082;-70
2023/07/13 00:04:52;;;;;;;3.90;2.77;;;;;;;20.32;55.59;100050.97;1664042;86;21153;-69
2023/07/13 00:07:21;;;;;;;4.83;2.72;;;;;;;20.33;55.51;100052.64;1663873;86;21093;-68
2023/07/13 00:09:51;;;;;;;3.42;2.30;;;;;;;20.34;55.52;100050.70;1614752;88;21075;-68
2023/07/13 00:12:33;;;;;;;3.80;2.70;;;;;;;20.34;55.50;100036.23;1663772;86;21082;-67
2023/07/13 00:15:09;;;;;;;5.37;2.90;;;;;;;20.34;55.57;100045.97;1711580;83;21031;-69
2023/07/13 00:17:39;;;;;;;4.72;2.70;;;;;;;20.35;55.89;100040.69;1726325;83;21070;-68
2023/07/13 00:20:09;;;;;;;6.55;3.00;;;;;;;20.32;56.06;100031.48;1731646;83;21466;-69
2023/07/13 00:22:38;;;;;;;4.45;2.77;;;;;;;20.31;56.11;100038.72;1726276;81;21502;-68
2023/07/13 00:25:11;;;;;;;2.95;2.50;;;;;;;20.33;56.17;100028.16;1726341;83;21506;-69
2023/07/13 00:27:40;;;;;;;4.25;2.62;;;;;;;20.34;55.96;100017.30;1726336;83;21042;-68
2023/07/13 00:30:12;;;;;;;6.33;2.42;;;;;;;20.34;55.97;100014.52;1731604;83;20998;-67
2023/07/13 00:32:42;;;;;;;3.58;2.75;;;;;;;20.33;56.25;100008.12;1701079;83;21058;-68
2023/07/13 00:35:14;;;;;;;6.20;2.60;;;;;;;20.28;56.62;100003.09;1726511;81;21070;-68
2023/07/13 00:37:44;;;;;;;5.62;2.92;;;;;;;20.21;56.99;100005.56;1726375;83;21462;-68
2023/07/13 00:40:16;;;;;;;4.50;2.52;;;;;;;20.11;57.35;100001.31;1726466;83;21054;-68
2023/07/13 00:42:47;;;;;;;6.37;2.83;;;;;;;20.03;57.64;100006.55;1697863;83;21554;-68
2023/07/13 00:45:26;;;;;;;5.67;2.98;;;;;;;19.97;57.96;100007.63;1726585;83;21481;-68
2023/07/13 00:47:57;;;;;;;6.85;3.00;;;;;;;19.91;58.21;100008.98;1726364;83;21043;-68
2023/07/13 00:50:28;;;;;;;4.85;3.00;;;;;;;19.85;58.39;100005.89;1731549;81;21022;-68
2023/07/13 00:52:58;;;;;;;4.65;3.00;;;;;;;19.81;58.59;100002.52;1726535;83;21467;-67
2023/07/13 00:55:28;;;;;;;6.20;2.80;;;;;;;19.79;58.69;100002.80;1731473;83;21537;-67
2023/07/13 00:57:58;;;;;;;6.58;2.90;;;;;;;19.79;58.84;100004.19;1726201;82;21125;-67
2023/07/13 01:00:27;;;;;;;10.23;3.27;;;;;;;19.78;58.93;100001.67;1691574;85;21189;-68
2023/07/13 01:02:56;;;;;;;4.80;2.80;;;;;;;19.77;58.99;99995.27;1721195;83;21043;-68
2023/07/13 01:05:28;;;;;;;3.50;2.90;;;;;;;19.78;59.06;100007.23;1691677;85;21075;-68
2023/07/13 01:07:57;;;;;;;4.40;2.83;;;;;;;19.79;59.05;99993.06;1721123;82;21119;-69
2023/07/13 01:10:26;;;;;;;5.90;2.70;;;;;;;19.81;59.26;99999.74;1691593;85;21099;-69
2023/07/13 01:12:56;;;;;;;5.62;2.72;;;;;;;19.82;59.32;99996.70;1703185;83;21557;-68
2023/07/13 01:15:44;;;;;;;3.45;2.77;;;;;;;19.83;59.19;99998.37;1691656;85;21491;-68
2023/07/13 01:18:24;;;;;;;3.47;2.70;;;;;;;19.82;59.17;99990.30;1702928;83;21018;-69
2023/07/13 01:21:00;;;;;;;5.25;2.98;;;;;;;19.81;59.41;99990.02;1721152;83;21023;-68
2023/07/13 01:23:30;;;;;;;5.53;3.05;;;;;;;19.81;59.40;99991.41;1703819;83;21007;-68
2023/07/13 01:25:59;;;;;;;5.85;3.27;;;;;;;19.81;59.52;99985.84;1691695;85;21234;-67
2023/07/13 01:28:31;;;;;;;6.05;3.37;;;;;;;19.78;59.63;99990.55;1720938;83;21062;-69
2023/07/13 01:31:04;;;;;;;5.97;3.20;;;;;;;19.76;59.61;99985.81;1670241;85;21107;-67
2023/07/13 01:33:39;;;;;;;4.45;3.10;;;;;;;19.76;59.63;99989.42;1721045;83;21086;-68
2023/07/13 01:36:08;;;;;;;5.92;3.20;;;;;;;19.78;59.64;99985.83;1703266;83;21532;-67
2023/07/13 01:38:41;;;;;;;5.50;3.00;;;;;;;19.79;59.63;99981.94;1720922;83;21030;-69
2023/07/13 01:41:12;;;;;;;4.80;3.05;;;;;;;19.78;59.67;99988.61;1721004;83;21058;-68
2023/07/13 01:43:42;;;;;;;4.67;3.30;;;;;;;19.77;59.65;99985.54;1691504;85;21071;-68
2023/07/13 01:46:10;;;;;;;7.35;3.12;;;;;;;19.78;59.73;99999.73;1721136;83;21026;-68
2023/07/13 01:48:42;;;;;;;4.08;3.05;;;;;;;19.78;59.88;99992.78;1719641;83;21039;-69
2023/07/13 01:51:13;;;;;;;5.50;3.10;;;;;;;19.80;59.92;99993.90;1691489;85;21107;-68
2023/07/13 01:53:47;;;;;;;4.15;3.00;;;;;;;19.80;59.92;99993.34;1726594;83;21034;-69
2023/07/13 01:56:19;;;;;;;5.83;3.62;;;;;;;19.81;59.90;99990.85;1703073;83;21070;-67
2023/07/13 01:58:49;;;;;;;4.55;3.10;;;;;;;19.81;59.90;99988.06;1691499;83;21066;-68
2023/07/13 02:01:21;;;;;;;3.50;2.80;;;;;;;19.82;59.90;99986.97;1721301;83;21031;-69
2023/07/13 02:03:51;;;;;;;5.85;3.15;;;;;;;19.81;59.90;99989.46;1721002;83;21050;-67
2023/07/13 02:06:24;;;;;;;5.72;3.40;;;;;;;19.82;59.88;99996.70;1721119;82;21030;-69
2023/07/13 02:08:54;;;;;;;4.80;3.27;;;;;;;19.82;59.90;99990.30;1720985;83;21466;-69
2023/07/13 02:11:32;;;;;;;6.35;3.15;;;;;;;19.80;59.90;99990.56;1721078;83;21090;-68
2023/07/13 02:14:01;;;;;;;4.15;3.33;;;;;;;19.79;59.92;99986.11;1721172;83;21417;-68
2023/07/13 02:16:32;;;;;;;4.45;3.00;;;;;;;19.79;59.96;99991.67;1691507;83;21039;-66
2023/07/13 02:19:02;;;;;;;5.42;3.10;;;;;;;19.76;60.05;99985.26;1721057;83;20983;-68
2023/07/13 02:21:32;;;;;;;5.33;3.12;;;;;;;19.77;60.04;99985.54;1720967;83;20995;-68
2023/07/13 02:24:04;;;;;;;6.37;3.50;;;;;;;19.76;60.00;99988.59;1691465;83;21044;-68
2023/07/13 02:26:34;;;;;;;6.28;3.20;;;;;;;19.75;60.13;99989.70;1720932;83;20991;-69
2023/07/13 02:29:06;;;;;;;8.93;3.27;;;;;;;19.74;60.15;99988.86;1721140;82;21466;-67
2023/07/13 02:31:40;;;;;;;6.08;3.45;;;;;;;19.74;60.12;99988.02;1721100;83;21023;-68
2023/07/13 02:34:11;;;;;;;6.95;3.22;;;;;;;19.71;60.21;99983.00;1691607;85;21042;-68
2023/07/13 02:36:43;;;;;;;5.87;3.58;;;;;;;19.71;60.15;99981.61;1721148;83;21011;-67
2023/07/13 02:39:13;;;;;;;3.87;3.00;;;;;;;19.70;60.17;99985.49;1691369;85;21162;-67
2023/07/13 02:41:44;;;;;;;6.47;3.33;;;;;;;19.68;60.30;99985.77;1726026;83;21466;-68
2023/07/13 02:44:15;;;;;;;5.95;2.80;;;;;;;19.69;60.27;99987.44;1643401;87;21070;-68
2023/07/13 02:46:47;;;;;;;5.65;3.60;;;;;;;19.67;60.21;99979.08;1643563;87;21095;-68
2023/07/13 02:49:16;;;;;;;5.30;3.50;;;;;;;19.66;60.24;99985.19;1643909;87;21087;-68
2023/07/13 02:51:45;;;;;;;4.37;3.27;;;;;;;19.68;60.27;99987.70;1643996;87;21066;-67
2023/07/13 02:54:18;;;;;;;5.55;3.50;;;;;;;19.69;60.12;99990.22;1644081;87;21054;-66
2023/07/13 02:56:47;;;;;;;4.47;3.22;;;;;;;19.68;60.05;99987.15;1643255;87;21508;-68
2023/07/13 02:59:17;;;;;;;4.25;3.30;;;;;;;19.69;60.10;99988.83;1641394;86;21118;-68
2023/07/13 03:01:46;;;;;;;5.70;3.30;;;;;;;19.71;60.05;99985.78;1615500;88;21530;-67
2023/07/13 03:04:19;;;;;;;3.35;3.00;;;;;;;19.74;59.89;99985.24;1621866;87;21055;-68
2023/07/13 03:06:49;;;;;;;4.45;3.35;;;;;;;19.76;59.85;99987.20;1643571;87;21665;-67
2023/07/13 03:09:19;;;;;;;4.25;3.27;;;;;;;19.77;59.72;99986.93;1707664;83;21009;-68
2023/07/13 03:11:55;;;;;;;6.10;3.30;;;;;;;19.80;59.58;99986.95;1701217;84;21102;-68
2023/07/13 03:14:30;;;;;;;4.70;3.10;;;;;;;19.84;59.39;99991.70;1723982;83;21053;-69
2023/07/13 03:17:01;;;;;;;6.00;3.30;;;;;;;19.86;59.32;99983.93;1723756;83;21492;-69
2023/07/13 03:19:32;;;;;;;5.58;3.10;;;;;;;19.88;59.23;99990.05;1701658;84;21122;-68
2023/07/13 03:22:03;;;;;;;3.45;3.10;;;;;;;19.92;59.17;99992.58;1723894;82;21007;-68
2023/07/13 03:24:37;;;;;;;5.05;3.12;;;;;;;19.96;59.13;99992.88;1724080;83;21004;-68
2023/07/13 03:27:08;;;;;;;5.72;3.33;;;;;;;19.99;58.87;99987.34;1701583;84;21054;-69
2023/07/13 03:29:42;;;;;;;4.05;3.05;;;;;;;20.03;58.76;99986.52;1723874;83;21026;-69
2023/07/13 03:32:14;;;;;;;6.10;2.95;;;;;;;20.07;58.55;99989.60;1696863;83;21170;-68
2023/07/13 03:34:43;;;;;;;7.42;3.15;;;;;;;20.13;58.43;99992.14;1723894;83;21111;-68
2023/07/13 03:37:15;;;;;;;5.90;3.02;;;;;;;20.20;58.36;99986.36;1723858;83;21042;-69
2023/07/13 03:39:45;;;;;;;6.10;2.98;;;;;;;20.26;58.25;99979.16;1724040;83;21045;-69
2023/07/13 03:42:16;;;;;;;6.00;3.10;;;;;;;20.33;58.08;99977.52;1723846;83;21073;-68
2023/07/13 03:44:52;;;;;;;5.80;3.25;;;;;;;20.38;57.97;99972.52;1697206;83;21074;-68
2023/07/13 03:47:17;;;;;;;5.08;2.77;;;;;;;20.42;57.95;99973.13;1723247;83;21027;-67
2023/07/13 03:49:47;;;;;;;4.22;3.05;;;;;;;20.45;57.73;99975.36;1697338;83;21066;-68
2023/07/13 03:52:16;;;;;;;5.50;3.45;;;;;;;20.50;57.70;99982.89;1701593;83;21122;-68
2023/07/13 03:54:46;;;;;;;5.97;3.20;;;;;;;20.53;57.70;99979.00;1697217;83;21069;-68
2023/07/13 03:57:16;;;;;;;6.47;3.10;;;;;;;20.58;57.62;99979.58;1673484;84;21166;-69
2023/07/13 03:59:46;;;;;;;4.10;3.33;;;;;;;20.64;57.37;99976.25;1722559;83;21019;-67
2023/07/13 04:02:17;;;;;;;5.22;3.20;;;;;;;20.68;57.03;99977.38;1611917;88;21106;-67
2023/07/13 04:04:48;;;;;;;4.50;3.40;;;;;;;20.72;57.02;99978.50;1641878;86;21762;-68
2023/07/13 04:07:18;;;;;;;7.90;3.30;;;;;;;20.76;57.02;99975.44;1641196;87;21160;-70
2023/07/13 04:09:49;;;;;;;6.33;3.47;;;;;;;20.80;56.83;99976.56;1565119;92;21107;-69
2023/07/13 04:12:19;;;;;;;8.88;4.50;;;;;;;20.85;56.81;99976.05;1565137;92;21523;-68
2023/07/13 04:14:48;;;;;;;3.70;3.15;;;;;;;20.91;56.72;99978.29;1565130;92;21136;-68
2023/07/13 04:17:18;;;;;;;5.67;3.20;;;;;;;20.97;56.40;99971.61;1564986;90;21138;-68
2023/07/13 04:19:48;;;;;;;7.50;3.08;;;;;;;21.05;56.21;99978.58;1583809;87;21135;-69
2023/07/13 04:22:18;;;;;;;8.45;3.25;;;;;;;21.12;56.06;99977.20;1641293;85;21108;-69
2023/07/13 04:24:49;;;;;;;4.78;3.08;;;;;;;21.23;55.95;99982.25;1594235;90;21067;-69
2023/07/13 04:27:20;;;;;;;4.85;3.10;;;;;;;21.36;55.75;99980.85;1605075;87;21562;-69
2023/07/13 04:29:51;;;;;;;4.53;2.80;;;;;;;21.48;55.38;99987.02;1640509;87;21119;-68
2023/07/13 04:32:22;;;;;;;3.75;2.80;;;;;;;21.60;55.14;99976.41;1640730;87;21082;-67
2023/07/13 04:34:55;;;;;;;6.87;2.92;;;;;;;21.71;54.82;99978.06;1640509;87;21107;-68
2023/07/13 04:37:23;;;;;;;5.80;2.90;;;;;;;21.81;54.16;99979.99;1640753;87;21212;-69
2023/07/13 04:39:53;;;;;;;5.30;3.30;;;;;;;21.88;53.96;99980.53;1640738;87;21043;-70
2023/07/13 04:42:26;;;;;;;8.43;3.10;;;;;;;21.96;53.78;99991.67;1661699;83;21085;-68
2023/07/13 04:44:55;;;;;;;6.40;3.35;;;;;;;22.03;53.81;99989.45;1721189;83;21422;-68
2023/07/13 04:47:25;;;;;;;6.37;3.10;;;;;;;22.10;53.49;99985.80;1702785;83;21446;-67
2023/07/13 04:49:54;;;;;;;3.52;2.77;;;;;;;22.17;53.28;99990.55;1721043;82;21062;-70
2023/07/13 04:52:24;;;;;;;4.20;2.95;;;;;;;22.22;53.29;99994.72;1691763;85;21036;-69
2023/07/13 04:54:53;;;;;;;7.28;3.58;;;;;;;22.26;53.04;99996.39;1720919;83;21058;-68
2023/07/13 04:57:23;;;;;;;5.72;3.25;;;;;;;22.28;52.98;100003.91;1691367;85;21103;-68
2023/07/13 04:59:52;;;;;;;10.43;3.37;;;;;;;22.32;52.82;100004.45;1721174;82;21072;-68
2023/07/13 05:02:22;;;;;;;7.33;3.10;;;;;;;22.33;52.62;100006.13;1691562;85;21067;-67
2023/07/13 05:04:52;;;;;;;28.77;4.15;;;;;;;22.34;52.33;100006.40;1721237;83;21014;-68
2023/07/13 05:07:22;;;;;;;8.20;3.10;;;;;;;22.33;52.38;100010.31;1691579;85;21071;-68
2023/07/13 05:09:51;;;;;;;6.37;3.40;;;;;;;22.35;52.44;100008.63;1721044;83;21467;-69
2023/07/13 05:12:21;;;;;;;12.33;4.30;;;;;;;22.37;52.44;100010.58;1691621;85;21083;-69
2023/07/13 05:14:52;;;;;;;7.45;3.30;;;;;;;22.38;52.50;100011.69;1720958;83;21088;-69
2023/07/13 05:17:21;;;;;;;7.50;3.25;;;;;;;22.41;52.28;100004.70;1721246;83;21046;-69
2023/07/13 05:19:51;;;;;;;5.90;3.12;;;;;;;22.39;52.30;100004.98;1721162;83;21043;-69
2023/07/13 05:22:20;;;;;;;3.33;2.98;;;;;;;22.40;52.52;100001.62;1721126;83;21038;-68
2023/07/13 05:24:49;;;;;;;8.45;3.62;;;;;;;22.44;52.66;100004.97;1720872;83;21066;-69
2023/07/13 05:27:20;;;;;;;6.67;3.70;;;;;;;22.48;52.64;100005.78;1703217;83;21419;-70
2023/07/13 05:29:51;;;;;;;5.58;3.15;;;;;;;22.52;52.60;99995.16;1691646;83;21090;-69
2023/07/13 05:32:21;;;;;;;10.23;3.65;;;;;;;22.55;52.49;100002.13;1721286;83;21031;-70
2023/07/13 05:34:51;;;;;;;7.87;4.12;;;;;;;22.59;52.57;99999.87;1721189;83;21010;-69
2023/07/13 05:37:21;;;;;;;7.25;3.75;;;;;;;22.74;52.57;99994.20;1703400;83;21015;-71
2023/07/13 05:39:53;;;;;;;10.95;3.10;;;;;;;22.92;52.17;100002.53;1721140;83;21054;-70
2023/07/13 05:42:23;;;;;;;5.75;3.17;;;;;;;23.13;51.85;99991.22;1721253;83;21062;-71
2023/07/13 05:44:54;;;;;;;9.30;3.35;;;;;;;23.39;51.49;99988.48;1691376;85;21480;-69
2023/07/13 05:47:24;;;;;;;8.38;3.35;;;;;;;23.60;50.74;100000.39;1721038;82;21108;-70
2023/07/13 05:49:54;;;;;;;6.78;3.40;;;;;;;23.73;50.58;99998.88;1691593;85;21153;-69
2023/07/13 05:52:24;;;;;;;7.80;3.45;;;;;;;23.85;50.24;99996.52;1720908;83;21047;-68
2023/07/13 05:54:53;;;;;;;4.90;2.92;;;;;;;23.90;50.11;100003.45;1721071;83;20983;-71
2023/07/13 05:57:23;;;;;;;5.70;3.08;;;;;;;23.91;49.62;100001.76;1720902;83;21054;-70
2023/07/13 05:59:53;;;;;;;8.83;3.52;;;;;;;23.93;49.05;99995.87;1721108;82;21039;-69
2023/07/13 06:02:22;;;;;;;7.00;3.25;;;;;;;23.90;48.86;99996.45;1691491;85;21052;-69
2023/07/13 06:04:54;;;;;;;4.67;2.75;;;;;;;23.85;48.69;99997.91;1721279;82;21070;-70
2023/07/13 06:07:24;;;;;;;6.50;3.10;;;;;;;23.83;48.92;99997.38;1721078;83;21019;-69
2023/07/13 06:09:53;;;;;;;7.12;2.75;;;;;;;23.82;49.13;99992.91;1669903;85;21523;-69
2023/07/13 06:12:23;;;;;;;7.25;3.42;;;;;;;23.84;49.11;99999.88;1721061;83;21039;-68
2023/07/13 06:14:55;;;;;;;8.90;4.15;;;;;;;23.88;49.05;99998.72;1721026;83;21050;-68
2023/07/13 06:17:25;;;;;;;9.20;4.12;;;;;;;23.94;49.17;99989.14;1721219;83;21051;-70
2023/07/13 06:19:56;;;;;;;6.45;3.65;;;;;;;24.00;49.28;99993.55;1721032;83;21010;-68
2023/07/13 06:22:26;;;;;;;12.05;3.87;;;;;;;24.17;48.89;99992.55;1721048;83;21030;-70
2023/07/13 06:24:56;;;;;;;7.33;4.50;;;;;;;24.44;48.42;99992.53;1721357;83;21058;-70
2023/07/13 06:27:25;;;;;;;9.88;3.70;;;;;;;24.72;48.33;99996.39;1721086;83;21474;-70
2023/07/13 06:29:57;;;;;;;5.03;3.05;;;;;;;25.02;47.28;99986.73;1720993;83;21470;-69
2023/07/13 06:32:27;;;;;;;8.43;3.42;;;;;;;25.24;46.20;99982.74;1721214;83;21070;-71
2023/07/13 06:34:56;;;;;;;8.13;3.27;;;;;;;25.38;45.83;99980.02;1691646;85;21067;-68
2023/07/13 06:37:26;;;;;;;6.97;3.12;;;;;;;25.48;45.74;99979.84;1721066;83;21054;-70
2023/07/13 06:39:56;;;;;;;12.05;3.35;;;;;;;25.54;45.50;99986.47;1721102;83;21474;-70
2023/07/13 06:42:25;;;;;;;5.65;3.30;;;;;;;25.57;45.29;99983.05;1721216;83;21034;-70
2023/07/13 06:44:56;;;;;;;6.78;3.50;;;;;;;25.60;45.23;99986.64;1721225;83;21032;-69
2023/07/13 06:47:25;;;;;;;8.18;3.27;;;;;;;25.62;45.13;99991.11;1691617;83;21063;-71
2023/07/13 06:49:56;;;;;;;6.55;3.70;;;;;;;25.62;45.31;99989.70;1721023;83;21041;-70
2023/07/13 06:52:26;;;;;;;9.23;3.62;;;;;;;25.59;45.49;99990.58;1721002;83;21442;-69
2023/07/13 06:54:55;;;;;;;7.72;3.30;;;;;;;25.58;45.43;99992.30;1691730;85;21059;-70
2023/07/13 06:57:26;;;;;;;7.85;3.55;;;;;;;25.54;45.35;100001.06;1721200;83;21050;-70
2023/07/13 06:59:57;;;;;;;9.95;3.60;;;;;;;25.51;45.65;99991.29;1670868;83;21106;-68
2023/07/13 07:02:27;;;;;;;9.70;3.70;;;;;;;25.49;45.63;99996.94;1724077;83;21042;-69
2023/07/13 07:04:57;;;;;;;8.88;3.40;;;;;;;25.48;45.65;99991.06;1724114;83;21062;-69
2023/07/13 07:07:28;;;;;;;6.78;3.40;;;;;;;25.47;45.47;99988.00;1723766;83;21106;-69
2023/07/13 07:09:57;;;;;;;11.12;4.15;;;;;;;25.45;45.70;99995.89;1724053;83;21042;-70
2023/07/13 07:12:27;;;;;;;12.37;4.20;;;;;;;25.45;45.97;99989.71;1723933;82;21062;-70
2023/07/13 07:14:56;;;;;;;7.80;3.40;;;;;;;25.48;46.16;99991.91;1701486;83;21074;-71
2023/07/13 07:17:26;;;;;;;10.28;4.28;;;;;;;25.60;45.70;99993.66;1723872;83;21058;-68
2023/07/13 07:19:55;;;;;;;8.95;3.72;;;;;;;25.66;45.51;99990.22;1701417;83;21495;-70
2023/07/13 07:22:27;;;;;;;6.75;4.00;;;;;;;25.71;45.35;99992.10;1724039;83;21050;-69
2023/07/13 07:24:58;;;;;;;11.57;3.95;;;;;;;25.73;45.49;99995.43;1701397;84;21106;-69
2023/07/13 07:27:28;;;;;;;11.10;4.10;;;;;;;25.78;45.67;99988.32;1636788;88;21095;-70
2023/07/13 07:30:00;;;;;;;7.83;4.05;;;;;;;25.84;45.59;99984.28;1636569;88;21071;-70
2023/07/13 07:32:33;;;;;;;11.53;4.85;;;;;;;25.91;45.32;99986.11;1622696;87;21058;-70
2023/07/13 07:35:06;;;;;;;8.65;4.92;;;;;;;25.96;45.08;99983.77;1643765;87;21108;-69
2023/07/13 07:37:35;;;;;;;16.40;11.10;;;;;;;26.02;45.22;99983.97;1643670;87;21062;-71
2023/07/13 07:40:10;;;;;;;11.18;7.65;;;;;;;26.12;45.33;99986.00;1643768;85;21150;-69
2023/07/13 07:42:42;;;;;;;20.90;11.35;;;;;;;26.22;44.93;99985.80;1643842;87;21115;-70
2023/07/13 07:45:13;;;;;;;15.38;11.00;;;;;;;26.30;44.99;99991.83;1643797;86;21062;-70
2023/07/13 07:47:43;;;;;;;21.48;11.33;;;;;;;26.38;45.00;99996.19;1621669;87;21035;-70
2023/07/13 07:50:14;;;;;;;13.35;6.25;;;;;;;26.43;44.70;99992.44;1643846;87;21090;-68
2023/07/13 07:52:44;;;;;;;11.00;5.30;;;;;;;26.44;44.73;99999.72;1713510;83;21085;-69
2023/07/13 07:55:15;;;;;;;14.83;4.65;;;;;;;26.44;44.99;99997.73;1680614;83;21317;-69
2023/07/13 07:57:46;;;;;;;10.85;4.78;;;;;;;26.43;45.12;100006.48;1666712;86;21126;-72
2023/07/13 08:00:18;;;;;;;10.05;4.45;;;;;;;26.43;45.44;100000.86;1630516;86;21094;-68
2023/07/13 08:02:50;;;;;;;7.55;3.87;;;;;;;26.45;45.58;100008.41;1694895;84;21555;-66
2023/07/13 08:05:21;;;;;;;12.73;4.37;;;;;;;26.47;45.45;99994.88;1718053;83;21500;-68
2023/07/13 08:07:52;;;;;;;6.65;3.90;;;;;;;26.52;45.95;99993.36;1721262;83;21548;-66
2023/07/13 08:10:22;;;;;;;13.58;5.00;;;;;;;26.71;44.98;99985.66;1723713;83;21474;-66
2023/07/13 08:12:51;;;;;;;8.08;3.60;;;;;;;26.94;44.52;99991.34;1712906;81;21068;-69
2023/07/13 08:15:23;;;;;;;10.18;4.53;;;;;;;27.10;43.86;99989.86;1694900;83;21052;-66
2023/07/13 08:17:52;;;;;;;9.28;4.22;;;;;;;27.19;43.86;99985.14;1695134;85;21084;-66
2023/07/13 08:20:26;;;;;;;8.75;3.72;;;;;;;27.26;43.78;99991.16;1694780;85;21044;-66
2023/07/13 08:22:57;;;;;;;7.25;3.60;;;;;;;27.28;43.67;99997.87;1694781;85;21096;-67
2023/07/13 08:25:27;;;;;;;10.32;4.40;;;;;;;27.28;43.73;99998.70;1694725;85;21124;-67
2023/07/13 08:27:57;;;;;;;8.25;3.85;;;;;;;27.31;43.92;100002.86;1695038;85;21085;-67
2023/07/13 08:30:28;;;;;;;10.35;3.50;;;;;;;27.41;43.81;99995.60;1715632;83;21087;-68
2023/07/13 08:32:57;;;;;;;8.23;3.70;;;;;;;27.76;43.32;99983.45;1669667;86;21094;-66
2023/07/13 08:35:26;;;;;;;6.55;3.52;;;;;;;27.76;43.32;99983.45;1669529;86;21082;-63
2023/07/13 08:37:55;;;;;;;8.55;4.10;;;;;;;28.00;43.22;99990.16;1669406;86;21151;-67
2023/07/13 08:40:25;;;;;;;4.30;3.42;;;;;;;28.24;42.94;99979.10;1669647;86;21079;-67
2023/07/13 08:42:58;;;;;;;5.42;3.60;;;;;;;28.56;42.86;99981.52;1669703;86;21091;-68
2023/07/13 08:45:38;;;;;;;8.45;3.87;;;;;;;28.94;41.36;99982.39;1669742;86;21015;-67
2023/07/13 08:48:27;;;;;;;8.40;3.70;;;;;;;29.33;40.45;99982.27;1669662;86;21063;-68
2023/07/13 08:51:02;;;;;;;9.03;3.42;;;;;;;29.68;40.10;99974.35;1729782;83;21411;-68
2023/07/13 08:53:39;;;;;;;4.75;3.20;;;;;;;29.96;38.53;99972.22;1724870;83;21063;-67
2023/07/13 08:56:13;;;;;;;7.37;3.27;;;;;;;30.08;37.35;99974.95;1669806;86;21091;-66
2023/07/13 08:58:45;;;;;;;8.83;3.83;;;;;;;30.06;36.92;99975.30;1729804;83;21086;-68
2023/07/13 09:01:45;;;;;;;5.95;3.60;;;;;;;29.86;36.85;99976.80;1730730;83;21114;-66
2023/07/13 09:04:22;;;;;;;6.50;3.70;;;;;;;29.70;37.39;99972.02;1670247;86;21060;-67
2023/07/13 09:07:11;;;;;;;5.70;3.55;;;;;;;29.52;37.86;99970.65;1719708;82;21038;-68
2023/07/13 09:10:21;;;;;;;8.53;4.17;;;;;;;29.44;38.47;99974.31;1719596;83;21002;-66
2023/07/13 09:12:58;;;;;;;6.85;4.40;;;;;;;29.25;38.34;99970.95;1719501;83;21046;-67
2023/07/13 09:15:36;;;;;;;9.58;4.95;;;;;;;29.07;39.08;99971.53;1719744;82;21384;-67
2023/07/13 09:18:29;;;;;;;6.78;4.60;;;;;;;28.94;40.66;99975.34;1719496;83;21065;-66
2023/07/13 09:21:05;;;;;;;11.73;3.95;;;;;;;28.84;42.20;99979.89;1719561;83;21022;-67
2023/07/13 09:23:35;;;;;;;7.40;4.00;;;;;;;28.72;40.01;99981.34;1692728;82;21081;-66
2023/07/13 09:26:20;;;;;;;5.40;3.52;;;;;;;28.64;40.06;99986.96;1719538;83;21072;-67
2023/07/13 09:28:55;;;;;;;9.35;4.45;;;;;;;28.58;39.82;99978.37;1719745;83;21034;-66
2023/07/13 09:31:41;;;;;;;5.17;3.60;;;;;;;28.58;39.97;99981.20;1720138;82;21426;-66
2023/07/13 09:34:12;;;;;;;5.58;3.80;;;;;;;28.66;40.16;99988.88;1719728;82;21081;-67
2023/07/13 09:36:41;;;;;;;5.53;3.52;;;;;;;28.76;40.13;99982.09;1719691;82;21022;-66
2023/07/13 09:39:22;;;;;;;4.90;3.70;;;;;;;28.81;40.23;99972.06;1719814;83;21431;-68
2023/07/13 09:42:08;;;;;;;8.90;3.70;;;;;;;28.86;40.05;99969.11;1719632;83;21453;-67
2023/07/13 09:44:54;;;;;;;6.20;3.60;;;;;;;28.93;40.41;99969.45;1719554;82;21074;-67
2023/07/13 09:47:30;;;;;;;5.87;3.30;;;;;;;29.05;39.54;99956.93;1696624;83;21041;-68
2023/07/13 09:50:03;;;;;;;7.55;3.87;;;;;;;29.13;38.97;99954.69;1719649;83;21066;-67
2023/07/13 09:52:47;;;;;;;5.40;3.70;;;;;;;29.23;39.38;99954.34;1719530;83;21065;-67
2023/07/13 09:55:30;;;;;;;4.37;3.55;;;;;;;29.38;39.17;99952.20;1719696;83;21069;-66
2023/07/13 09:58:19;;;;;;;5.10;3.30;;;;;;;29.52;38.37;99952.88;1719607;83;21109;-67
2023/07/13 10:01:04;;;;;;;7.85;3.60;;;;;;;29.58;38.02;99945.30;1719577;83;21093;-67
2023/07/13 10:03:39;;;;;;;;;;;;;;;29.63;37.05;99945.13;1716912;82;21032;-68
2023/07/13 10:06:19;;;;;;;9.30;3.27;;;;;;;29.55;37.30;99944.56;1690920;85;20497;-66
2023/07/13 10:08:52;;;;;;;6.60;3.50;;;;;;;29.45;37.45;99940.69;1703175;84;21004;-67
2023/07/13 10:11:33;;;;;;;6.67;3.45;;;;;;;29.41;37.08;99942.48;1703344;83;21028;-66
2023/07/13 10:14:16;;;;;;;8.25;3.52;;;;;;;29.36;36.81;99938.42;1703144;84;21028;-65
2023/07/13 10:16:46;;;;;;;6.42;3.62;;;;;;;29.27;37.09;99940.44;1703326;83;21063;-66
2023/07/13 10:19:25;;;;;;;7.42;3.47;;;;;;;29.24;37.02;99942.48;1703205;83;21064;-67
2023/07/13 10:21:59;;;;;;;5.78;3.55;;;;;;;29.24;37.28;99935.42;1703263;83;21019;-67
2023/07/13 10:24:32;;;;;;;4.58;3.30;;;;;;;29.26;37.49;99922.67;1703498;84;21016;-67
2023/07/13 10:27:19;;;;;;;6.80;3.52;;;;;;;29.26;37.55;99931.14;1715801;81;21030;-68
2023/07/13 10:29:54;;;;;;;3.95;3.00;;;;;;;29.29;37.49;99919.76;1732590;81;21013;-66
2023/07/13 10:32:24;;;;;;;7.58;3.52;;;;;;;29.30;37.80;99920.01;1732103;83;21547;-67
2023/07/13 10:34:56;;;;;;;7.90;5.30;;;;;;;29.38;38.01;99912.69;1732309;83;21469;-67
2023/07/13 10:37:28;;;;;;;4.53;3.80;;;;;;;29.44;37.25;99909.39;1732244;83;21037;-66
2023/07/13 10:39:57;;;;;;;5.97;3.60;;;;;;;29.49;37.53;99904.14;1732265;81;21017;-65
2023/07/13 10:42:39;;;;;;;10.65;3.83;;;;;;;29.56;37.69;99893.16;1704131;83;21085;-66
2023/07/13 10:45:20;;;;;;;8.90;4.10;;;;;;;29.63;37.67;99890.65;1732428;83;21037;-67
2023/07/13 10:47:52;;;;;;;9.35;4.12;;;;;;;29.65;37.64;99884.91;1732304;81;21073;-67
2023/07/13 10:50:24;;;;;;;8.03;3.95;;;;;;;29.66;37.80;99880.09;1732252;83;21126;-67
2023/07/13 10:52:54;;;;;;;4.15;3.75;;;;;;;29.68;37.87;99874.10;1732347;81;21045;-67
2023/07/13 10:55:55;;;;;;;5.95;3.92;;;;;;;29.69;38.09;99862.47;1732318;83;21049;-66
2023/07/13 10:58:36;;;;;;;5.62;3.85;;;;;;;29.76;38.07;99863.36;1732210;81;21009;-66
2023/07/13 11:01:12;;;;;;;7.47;3.87;;;;;;;29.81;37.92;99866.81;1706894;83;21066;-66
2023/07/13 11:04:02;;;;;;;6.20;4.20;;;;;;;29.85;37.92;99861.32;1718472;82;21534;-67
2023/07/13 11:06:39;;;;;;;7.33;4.35;;;;;;;29.80;37.71;99863.75;1694954;85;20998;-66
2023/07/13 11:09:32;;;;;;;7.45;4.47;;;;;;;29.77;38.16;99856.54;1694836;85;21077;-67
2023/07/13 11:12:18;;;;;;;5.67;4.03;;;;;;;29.80;37.78;99852.45;1687264;84;21058;-66
2023/07/13 11:15:06;;;;;;;4.53;4.00;;;;;;;29.83;37.68;99845.30;1694918;83;21066;-66
2023/07/13 11:17:51;;;;;;;4.83;4.00;;;;;;;29.81;37.71;99839.16;1694866;84;21101;-68
2023/07/13 11:20:23;;;;;;;5.70;3.92;;;;;;;29.79;37.36;99835.27;1679511;84;21491;-61
2023/07/13 11:22:57;;;;;;;9.18;4.40;;;;;;;29.76;37.68;99837.94;1694992;84;21071;-66
2023/07/13 11:25:33;;;;;;;5.95;4.28;;;;;;;29.77;37.22;99848.06;1675565;83;21012;-67
2023/07/13 11:28:13;;;;;;;7.47;4.10;;;;;;;29.73;37.72;99842.85;1695113;85;21031;-68
2023/07/13 11:31:00;;;;;;;8.45;4.28;;;;;;;29.73;38.09;99851.32;1705744;83;21038;-65
2023/07/13 11:33:42;;;;;;;6.03;4.53;;;;;;;29.73;38.31;99846.50;1706786;84;21029;-68
2023/07/13 11:36:23;;;;;;;6.70;4.40;;;;;;;29.74;38.13;99846.75;1707074;83;21005;-67
2023/07/13 11:39:02;;;;;;;6.15;4.30;;;;;;;29.72;38.53;99847.67;1706957;84;21426;-69
2023/07/13 11:41:35;;;;;;;19.12;4.78;;;;;;;29.73;38.72;99854.97;1702866;82;21469;-68
2023/07/13 11:44:19;;;;;;;8.00;4.78;;;;;;;29.75;38.65;99856.87;1707182;84;21060;-68
2023/07/13 11:47:00;;;;;;;7.67;4.53;;;;;;;29.77;39.07;99857.36;1706920;83;21105;-69
2023/07/13 11:49:32;;;;;;;7.72;4.78;;;;;;;29.80;38.77;99861.51;1687449;84;21084;-68
2023/07/13 11:52:03;;;;;;;7.22;4.78;;;;;;;29.81;38.45;99851.87;1706939;84;21116;-69
2023/07/13 11:54:37;;;;;;;7.25;4.87;;;;;;;29.80;38.59;99843.98;1687357;83;21037;-69
2023/07/13 11:57:34;;;;;;;10.80;6.15;;;;;;;29.81;38.78;99837.16;1706379;84;21046;-68
2023/07/13 12:00:14;;;;;;;8.93;5.43;;;;;;;29.85;39.10;99837.31;1707156;84;21092;-68